sensor_id;sensor_type;location;lat;lon;timestamp;P1;durP1;ratioP1;P2;durP2;ratioP2
5499;SDS011;2772;42.700;23.304;2023-09-07T00:00:43;17.60;;;12.73;;
5499;SDS011;2772;42.700;23.304;2023-09-07T00:03:13;16.20;;;12.30;;
5499;SDS011;2772;42.700;23.304;2023-09-07T00:05:41;20.13;;;12.90;;
5499;SDS011;2772;42.700;23.304;2023-09-07T00:08:08;15.07;;;11.70;;
5499;SDS011;2772;42.700;23.304;2023-09-07T00:10:35;13.73;;;11.10;;
5499;SDS011;2772;42.700;23.304;2023-09-07T00:13:01;13.37;;;11.97;;
5499;SDS011;2772;42.700;23.304;2023-09-07T00:15:28;13.50;;;12.00;;
5499;SDS011;2772;42.700;23.304;2023-09-07T00:17:55;18.63;;;12.67;;
5499;SDS011;2772;42.700;23.304;2023-09-07T00:20:23;12.80;;;11.50;;
5499;SDS011;2772;42.700;23.304;2023-09-07T00:22:51;17.13;;;12.47;;
5499;SDS011;2772;42.700;23.304;2023-09-07T00:25:18;18.07;;;11.90;;
5499;SDS011;2772;42.700;23.304;2023-09-07T00:27:45;17.47;;;13.03;;
5499;SDS011;2772;42.700;23.304;2023-09-07T00:30:12;13.03;;;11.63;;
5499;SDS011;2772;42.700;23.304;2023-09-07T00:32:39;16.63;;;12.50;;
5499;SDS011;2772;42.700;23.304;2023-09-07T00:35:06;14.70;;;11.93;;
5499;SDS011;2772;42.700;23.304;2023-09-07T00:37:36;15.80;;;12.57;;
5499;SDS011;2772;42.700;23.304;2023-09-07T00:40:05;19.90;;;12.80;;
5499;SDS011;2772;42.700;23.304;2023-09-07T00:42:34;17.67;;;13.07;;
5499;SDS011;2772;42.700;23.304;2023-09-07T00:45:01;15.57;;;12.47;;
5499;SDS011;2772;42.700;23.304;2023-09-07T00:47:28;17.73;;;12.43;;
5499;SDS011;2772;42.700;23.304;2023-09-07T00:49:55;15.20;;;12.53;;
5499;SDS011;2772;42.700;23.304;2023-09-07T00:52:23;16.60;;;12.37;;
5499;SDS011;2772;42.700;23.304;2023-09-07T00:54:50;16.10;;;13.23;;
5499;SDS011;2772;42.700;23.304;2023-09-07T00:57:18;19.27;;;12.03;;
5499;SDS011;2772;42.700;23.304;2023-09-07T00:59:45;14.43;;;12.40;;
5499;SDS011;2772;42.700;23.304;2023-09-07T01:02:12;16.63;;;13.10;;
5499;SDS011;2772;42.700;23.304;2023-09-07T01:04:39;15.10;;;13.50;;
5499;SDS011;2772;42.700;23.304;2023-09-07T01:07:10;15.67;;;13.63;;
5499;SDS011;2772;42.700;23.304;2023-09-07T01:09:43;17.33;;;13.23;;
5499;SDS011;2772;42.700;23.304;2023-09-07T01:12:14;18.10;;;12.57;;
5499;SDS011;2772;42.700;23.304;2023-09-07T01:14:43;17.50;;;12.30;;
5499;SDS011;2772;42.700;23.304;2023-09-07T01:17:11;17.70;;;13.77;;
5499;SDS011;2772;42.700;23.304;2023-09-07T01:19:39;17.97;;;13.50;;
5499;SDS011;2772;42.700;23.304;2023-09-07T01:22:07;22.57;;;13.97;;
5499;SDS011;2772;42.700;23.304;2023-09-07T01:24:34;16.50;;;14.13;;
5499;SDS011;2772;42.700;23.304;2023-09-07T01:27:04;16.43;;;14.60;;
5499;SDS011;2772;42.700;23.304;2023-09-07T01:29:31;18.13;;;13.77;;
5499;SDS011;2772;42.700;23.304;2023-09-07T01:31:58;19.70;;;13.53;;
5499;SDS011;2772;42.700;23.304;2023-09-07T01:34:25;18.37;;;14.13;;
5499;SDS011;2772;42.700;23.304;2023-09-07T01:36:52;16.70;;;14.47;;
5499;SDS011;2772;42.700;23.304;2023-09-07T01:39:20;18.77;;;15.33;;
5499;SDS011;2772;42.700;23.304;2023-09-07T01:41:48;17.90;;;14.90;;
5499;SDS011;2772;42.700;23.304;2023-09-07T01:44:14;19.03;;;16.07;;
5499;SDS011;2772;42.700;23.304;2023-09-07T01:46:41;20.43;;;15.77;;
5499;SDS011;2772;42.700;23.304;2023-09-07T01:49:08;25.60;;;15.63;;
5499;SDS011;2772;42.700;23.304;2023-09-07T01:51:34;21.60;;;16.20;;
5499;SDS011;2772;42.700;23.304;2023-09-07T01:54:02;19.23;;;15.40;;
5499;SDS011;2772;42.700;23.304;2023-09-07T01:56:30;20.63;;;16.23;;
5499;SDS011;2772;42.700;23.304;2023-09-07T01:58:57;18.80;;;15.37;;
5499;SDS011;2772;42.700;23.304;2023-09-07T02:01:24;20.37;;;16.60;;
5499;SDS011;2772;42.700;23.304;2023-09-07T02:03:52;23.23;;;16.00;;
5499;SDS011;2772;42.700;23.304;2023-09-07T02:06:19;20.33;;;15.57;;
5499;SDS011;2772;42.700;23.304;2023-09-07T02:08:46;22.00;;;16.17;;
5499;SDS011;2772;42.700;23.304;2023-09-07T02:11:13;19.97;;;16.60;;
5499;SDS011;2772;42.700;23.304;2023-09-07T02:13:42;24.60;;;15.77;;
5499;SDS011;2772;42.700;23.304;2023-09-07T02:16:09;19.67;;;16.20;;
5499;SDS011;2772;42.700;23.304;2023-09-07T02:18:36;20.93;;;15.60;;
5499;SDS011;2772;42.700;23.304;2023-09-07T02:21:05;23.73;;;16.33;;
5499;SDS011;2772;42.700;23.304;2023-09-07T02:23:32;23.53;;;17.47;;
5499;SDS011;2772;42.700;23.304;2023-09-07T02:25:59;19.20;;;15.80;;
5499;SDS011;2772;42.700;23.304;2023-09-07T02:28:26;21.37;;;17.00;;
5499;SDS011;2772;42.700;23.304;2023-09-07T02:30:54;26.93;;;17.63;;
5499;SDS011;2772;42.700;23.304;2023-09-07T02:33:21;19.57;;;16.40;;
5499;SDS011;2772;42.700;23.304;2023-09-07T02:35:47;23.63;;;16.43;;
5499;SDS011;2772;42.700;23.304;2023-09-07T02:38:15;19.77;;;16.10;;
5499;SDS011;2772;42.700;23.304;2023-09-07T02:40:42;21.87;;;17.10;;
5499;SDS011;2772;42.700;23.304;2023-09-07T02:43:09;22.87;;;17.17;;
5499;SDS011;2772;42.700;23.304;2023-09-07T02:45:36;24.80;;;16.30;;
5499;SDS011;2772;42.700;23.304;2023-09-07T02:48:04;19.53;;;16.87;;
5499;SDS011;2772;42.700;23.304;2023-09-07T02:50:48;20.60;;;16.70;;
5499;SDS011;2772;42.700;23.304;2023-09-07T02:53:27;29.47;;;19.33;;
5499;SDS011;2772;42.700;23.304;2023-09-07T02:55:53;22.20;;;17.40;;
5499;SDS011;2772;42.700;23.304;2023-09-07T02:58:21;25.00;;;18.80;;
5499;SDS011;2772;42.700;23.304;2023-09-07T03:00:48;22.13;;;18.20;;
5499;SDS011;2772;42.700;23.304;2023-09-07T03:03:16;21.80;;;17.50;;
5499;SDS011;2772;42.700;23.304;2023-09-07T03:05:43;28.03;;;18.90;;
5499;SDS011;2772;42.700;23.304;2023-09-07T03:08:11;21.30;;;17.27;;
5499;SDS011;2772;42.700;23.304;2023-09-07T03:10:38;22.50;;;17.50;;
5499;SDS011;2772;42.700;23.304;2023-09-07T03:13:06;25.13;;;17.77;;
5499;SDS011;2772;42.700;23.304;2023-09-07T03:15:33;25.97;;;18.00;;
5499;SDS011;2772;42.700;23.304;2023-09-07T03:18:00;23.60;;;18.60;;
5499;SDS011;2772;42.700;23.304;2023-09-07T03:20:28;21.80;;;17.57;;
5499;SDS011;2772;42.700;23.304;2023-09-07T03:22:55;23.70;;;18.60;;
5499;SDS011;2772;42.700;23.304;2023-09-07T03:25:22;23.20;;;18.90;;
5499;SDS011;2772;42.700;23.304;2023-09-07T03:27:49;25.67;;;18.80;;
5499;SDS011;2772;42.700;23.304;2023-09-07T03:30:16;25.10;;;19.20;;
5499;SDS011;2772;42.700;23.304;2023-09-07T03:32:43;26.50;;;19.47;;
5499;SDS011;2772;42.700;23.304;2023-09-07T03:35:10;24.53;;;20.00;;
5499;SDS011;2772;42.700;23.304;2023-09-07T03:37:38;29.33;;;20.93;;
5499;SDS011;2772;42.700;23.304;2023-09-07T03:40:06;24.53;;;19.50;;
5499;SDS011;2772;42.700;23.304;2023-09-07T03:42:35;35.57;;;28.10;;
5499;SDS011;2772;42.700;23.304;2023-09-07T03:45:02;26.53;;;20.20;;
5499;SDS011;2772;42.700;23.304;2023-09-07T03:47:29;26.00;;;20.23;;
5499;SDS011;2772;42.700;23.304;2023-09-07T03:49:56;31.13;;;21.70;;
5499;SDS011;2772;42.700;23.304;2023-09-07T03:52:24;25.33;;;19.60;;
5499;SDS011;2772;42.700;23.304;2023-09-07T03:54:53;32.07;;;20.50;;
5499;SDS011;2772;42.700;23.304;2023-09-07T03:57:20;25.00;;;19.30;;
5499;SDS011;2772;42.700;23.304;2023-09-07T03:59:47;25.60;;;20.90;;
5499;SDS011;2772;42.700;23.304;2023-09-07T04:02:14;25.83;;;20.23;;
5499;SDS011;2772;42.700;23.304;2023-09-07T04:04:42;27.57;;;20.63;;
5499;SDS011;2772;42.700;23.304;2023-09-07T04:07:09;28.33;;;20.50;;
5499;SDS011;2772;42.700;23.304;2023-09-07T04:09:36;27.43;;;19.93;;
5499;SDS011;2772;42.700;23.304;2023-09-07T04:12:04;26.47;;;20.50;;
5499;SDS011;2772;42.700;23.304;2023-09-07T04:14:33;34.27;;;20.97;;
5499;SDS011;2772;42.700;23.304;2023-09-07T04:17:00;27.83;;;21.43;;
5499;SDS011;2772;42.700;23.304;2023-09-07T04:19:27;26.03;;;20.57;;
5499;SDS011;2772;42.700;23.304;2023-09-07T04:21:54;28.80;;;21.13;;
5499;SDS011;2772;42.700;23.304;2023-09-07T04:24:21;26.50;;;21.27;;
5499;SDS011;2772;42.700;23.304;2023-09-07T04:26:47;28.37;;;21.50;;
5499;SDS011;2772;42.700;23.304;2023-09-07T04:29:16;25.10;;;20.60;;
5499;SDS011;2772;42.700;23.304;2023-09-07T04:31:43;31.30;;;22.60;;
5499;SDS011;2772;42.700;23.304;2023-09-07T04:34:09;37.90;;;21.50;;
5499;SDS011;2772;42.700;23.304;2023-09-07T04:36:36;24.63;;;20.60;;
5499;SDS011;2772;42.700;23.304;2023-09-07T04:39:03;29.07;;;21.00;;
5499;SDS011;2772;42.700;23.304;2023-09-07T04:41:30;28.10;;;21.40;;
5499;SDS011;2772;42.700;23.304;2023-09-07T04:43:57;26.23;;;20.60;;
5499;SDS011;2772;42.700;23.304;2023-09-07T04:46:25;27.40;;;22.20;;
5499;SDS011;2772;42.700;23.304;2023-09-07T04:48:51;33.70;;;22.60;;
5499;SDS011;2772;42.700;23.304;2023-09-07T04:51:18;31.67;;;21.77;;
5499;SDS011;2772;42.700;23.304;2023-09-07T04:53:47;29.60;;;21.90;;
5499;SDS011;2772;42.700;23.304;2023-09-07T04:56:13;36.43;;;22.20;;
5499;SDS011;2772;42.700;23.304;2023-09-07T04:58:41;32.37;;;22.30;;
5499;SDS011;2772;42.700;23.304;2023-09-07T05:01:08;32.53;;;21.20;;
5499;SDS011;2772;42.700;23.304;2023-09-07T05:03:37;29.23;;;20.20;;
5499;SDS011;2772;42.700;23.304;2023-09-07T05:06:06;27.93;;;20.23;;
5499;SDS011;2772;42.700;23.304;2023-09-07T05:08:33;35.43;;;21.00;;
5499;SDS011;2772;42.700;23.304;2023-09-07T05:11:01;35.37;;;22.13;;
5499;SDS011;2772;42.700;23.304;2023-09-07T05:13:29;26.87;;;21.03;;
5499;SDS011;2772;42.700;23.304;2023-09-07T05:15:56;27.70;;;21.63;;
5499;SDS011;2772;42.700;23.304;2023-09-07T05:18:24;30.67;;;20.77;;
5499;SDS011;2772;42.700;23.304;2023-09-07T05:20:52;33.07;;;21.00;;
5499;SDS011;2772;42.700;23.304;2023-09-07T05:23:19;29.17;;;21.87;;
5499;SDS011;2772;42.700;23.304;2023-09-07T05:25:49;30.80;;;21.10;;
5499;SDS011;2772;42.700;23.304;2023-09-07T05:28:21;37.60;;;20.90;;
5499;SDS011;2772;42.700;23.304;2023-09-07T05:30:48;25.23;;;21.00;;
5499;SDS011;2772;42.700;23.304;2023-09-07T05:33:16;33.57;;;21.00;;
5499;SDS011;2772;42.700;23.304;2023-09-07T05:35:43;31.13;;;21.67;;
5499;SDS011;2772;42.700;23.304;2023-09-07T05:38:13;27.60;;;20.50;;
5499;SDS011;2772;42.700;23.304;2023-09-07T05:40:40;28.97;;;20.07;;
5499;SDS011;2772;42.700;23.304;2023-09-07T05:43:08;29.13;;;20.30;;
5499;SDS011;2772;42.700;23.304;2023-09-07T05:45:35;28.60;;;20.13;;
5499;SDS011;2772;42.700;23.304;2023-09-07T05:48:03;25.93;;;19.53;;
5499;SDS011;2772;42.700;23.304;2023-09-07T05:50:30;30.90;;;21.50;;
5499;SDS011;2772;42.700;23.304;2023-09-07T05:52:58;27.00;;;19.80;;
5499;SDS011;2772;42.700;23.304;2023-09-07T05:55:26;27.70;;;19.73;;
5499;SDS011;2772;42.700;23.304;2023-09-07T05:57:53;30.80;;;20.53;;
5499;SDS011;2772;42.700;23.304;2023-09-07T06:00:20;30.03;;;21.20;;
5499;SDS011;2772;42.700;23.304;2023-09-07T06:02:47;29.17;;;19.90;;
5499;SDS011;2772;42.700;23.304;2023-09-07T06:05:14;27.97;;;20.10;;
5499;SDS011;2772;42.700;23.304;2023-09-07T06:07:41;32.30;;;19.73;;
5499;SDS011;2772;42.700;23.304;2023-09-07T06:10:08;29.63;;;19.77;;
5499;SDS011;2772;42.700;23.304;2023-09-07T06:12:36;38.43;;;20.50;;
5499;SDS011;2772;42.700;23.304;2023-09-07T06:15:03;27.57;;;17.97;;
5499;SDS011;2772;42.700;23.304;2023-09-07T06:17:30;30.03;;;19.67;;
5499;SDS011;2772;42.700;23.304;2023-09-07T06:19:57;28.83;;;18.73;;
5499;SDS011;2772;42.700;23.304;2023-09-07T06:22:24;22.90;;;17.70;;
5499;SDS011;2772;42.700;23.304;2023-09-07T06:24:51;27.93;;;16.90;;
5499;SDS011;2772;42.700;23.304;2023-09-07T06:27:17;22.40;;;16.60;;
5499;SDS011;2772;42.700;23.304;2023-09-07T06:29:45;22.93;;;16.50;;
5499;SDS011;2772;42.700;23.304;2023-09-07T06:32:12;18.10;;;14.77;;
5499;SDS011;2772;42.700;23.304;2023-09-07T06:34:39;19.17;;;14.50;;
5499;SDS011;2772;42.700;23.304;2023-09-07T06:37:06;16.87;;;14.30;;
5499;SDS011;2772;42.700;23.304;2023-09-07T06:39:33;21.57;;;15.00;;
5499;SDS011;2772;42.700;23.304;2023-09-07T06:42:00;19.60;;;15.73;;
5499;SDS011;2772;42.700;23.304;2023-09-07T06:44:27;26.47;;;15.33;;
5499;SDS011;2772;42.700;23.304;2023-09-07T06:46:55;19.33;;;14.30;;
5499;SDS011;2772;42.700;23.304;2023-09-07T06:49:22;23.77;;;15.83;;
5499;SDS011;2772;42.700;23.304;2023-09-07T06:51:48;21.70;;;15.20;;
5499;SDS011;2772;42.700;23.304;2023-09-07T06:54:15;24.27;;;14.23;;
5499;SDS011;2772;42.700;23.304;2023-09-07T06:56:42;16.03;;;12.90;;
5499;SDS011;2772;42.700;23.304;2023-09-07T06:59:08;22.23;;;14.60;;
5499;SDS011;2772;42.700;23.304;2023-09-07T07:01:35;21.70;;;15.30;;
5499;SDS011;2772;42.700;23.304;2023-09-07T07:04:03;17.53;;;13.63;;
5499;SDS011;2772;42.700;23.304;2023-09-07T07:06:30;19.53;;;14.57;;
5499;SDS011;2772;42.700;23.304;2023-09-07T07:08:57;27.80;;;16.97;;
5499;SDS011;2772;42.700;23.304;2023-09-07T07:11:24;27.70;;;16.40;;
5499;SDS011;2772;42.700;23.304;2023-09-07T07:13:50;16.40;;;11.90;;
5499;SDS011;2772;42.700;23.304;2023-09-07T07:16:17;19.17;;;12.10;;
5499;SDS011;2772;42.700;23.304;2023-09-07T07:18:44;21.67;;;14.27;;
5499;SDS011;2772;42.700;23.304;2023-09-07T07:21:12;16.37;;;12.20;;
5499;SDS011;2772;42.700;23.304;2023-09-07T07:23:39;21.00;;;12.70;;
5499;SDS011;2772;42.700;23.304;2023-09-07T07:26:06;26.63;;;15.70;;
5499;SDS011;2772;42.700;23.304;2023-09-07T07:28:34;18.60;;;12.83;;
5499;SDS011;2772;42.700;23.304;2023-09-07T07:31:06;16.13;;;12.10;;
5499;SDS011;2772;42.700;23.304;2023-09-07T07:33:33;18.60;;;12.53;;
5499;SDS011;2772;42.700;23.304;2023-09-07T07:36:00;21.33;;;13.17;;
5499;SDS011;2772;42.700;23.304;2023-09-07T07:38:28;12.17;;;10.47;;
5499;SDS011;2772;42.700;23.304;2023-09-07T07:40:55;15.13;;;10.50;;
5499;SDS011;2772;42.700;23.304;2023-09-07T07:43:21;16.83;;;10.70;;
5499;SDS011;2772;42.700;23.304;2023-09-07T07:45:48;13.53;;;11.60;;
5499;SDS011;2772;42.700;23.304;2023-09-07T07:48:15;20.00;;;12.80;;
5499;SDS011;2772;42.700;23.304;2023-09-07T07:50:42;19.40;;;11.27;;
5499;SDS011;2772;42.700;23.304;2023-09-07T07:53:11;19.20;;;11.50;;
5499;SDS011;2772;42.700;23.304;2023-09-07T07:55:39;21.70;;;16.37;;
5499;SDS011;2772;42.700;23.304;2023-09-07T07:58:05;12.57;;;11.27;;
5499;SDS011;2772;42.700;23.304;2023-09-07T08:00:33;12.90;;;10.80;;
5499;SDS011;2772;42.700;23.304;2023-09-07T08:03:00;16.53;;;10.30;;
5499;SDS011;2772;42.700;23.304;2023-09-07T08:05:28;13.00;;;9.20;;
5499;SDS011;2772;42.700;23.304;2023-09-07T08:07:56;12.83;;;10.30;;
5499;SDS011;2772;42.700;23.304;2023-09-07T08:10:22;24.23;;;15.03;;
5499;SDS011;2772;42.700;23.304;2023-09-07T08:12:53;15.10;;;10.40;;
5499;SDS011;2772;42.700;23.304;2023-09-07T08:15:20;14.20;;;11.00;;
5499;SDS011;2772;42.700;23.304;2023-09-07T08:17:47;11.57;;;8.57;;
5499;SDS011;2772;42.700;23.304;2023-09-07T08:20:15;20.80;;;11.00;;
5499;SDS011;2772;42.700;23.304;2023-09-07T08:22:41;19.30;;;12.53;;
5499;SDS011;2772;42.700;23.304;2023-09-07T08:25:09;13.40;;;10.10;;
5499;SDS011;2772;42.700;23.304;2023-09-07T08:27:36;23.10;;;12.03;;
5499;SDS011;2772;42.700;23.304;2023-09-07T08:30:05;12.87;;;9.97;;
5499;SDS011;2772;42.700;23.304;2023-09-07T08:32:33;10.67;;;8.70;;
5499;SDS011;2772;42.700;23.304;2023-09-07T08:35:00;10.60;;;9.33;;
5499;SDS011;2772;42.700;23.304;2023-09-07T08:37:31;16.07;;;9.83;;
5499;SDS011;2772;42.700;23.304;2023-09-07T08:39:58;14.75;;;9.70;;
5499;SDS011;2772;42.700;23.304;2023-09-07T08:42:25;10.20;;;8.97;;
5499;SDS011;2772;42.700;23.304;2023-09-07T08:44:53;11.00;;;8.43;;
5499;SDS011;2772;42.700;23.304;2023-09-07T08:47:24;16.03;;;8.53;;
5499;SDS011;2772;42.700;23.304;2023-09-07T08:49:54;13.53;;;9.30;;
5499;SDS011;2772;42.700;23.304;2023-09-07T08:52:22;14.53;;;11.20;;
5499;SDS011;2772;42.700;23.304;2023-09-07T08:54:49;11.43;;;9.50;;
5499;SDS011;2772;42.700;23.304;2023-09-07T08:57:17;12.60;;;9.17;;
5499;SDS011;2772;42.700;23.304;2023-09-07T08:59:47;10.37;;;8.50;;
5499;SDS011;2772;42.700;23.304;2023-09-07T09:02:14;13.50;;;8.83;;
5499;SDS011;2772;42.700;23.304;2023-09-07T09:04:43;15.27;;;8.30;;
5499;SDS011;2772;42.700;23.304;2023-09-07T09:07:09;11.47;;;8.60;;
5499;SDS011;2772;42.700;23.304;2023-09-07T09:09:36;27.13;;;9.00;;
5499;SDS011;2772;42.700;23.304;2023-09-07T09:12:06;9.37;;;8.30;;
5499;SDS011;2772;42.700;23.304;2023-09-07T09:14:34;12.67;;;8.13;;
5499;SDS011;2772;42.700;23.304;2023-09-07T09:17:01;10.43;;;8.30;;
5499;SDS011;2772;42.700;23.304;2023-09-07T09:19:30;9.03;;;8.23;;
5499;SDS011;2772;42.700;23.304;2023-09-07T09:21:59;10.27;;;8.97;;
5499;SDS011;2772;42.700;23.304;2023-09-07T09:24:25;18.07;;;8.07;;
5499;SDS011;2772;42.700;23.304;2023-09-07T09:26:52;12.73;;;9.63;;
5499;SDS011;2772;42.700;23.304;2023-09-07T09:29:21;9.97;;;8.30;;
5499;SDS011;2772;42.700;23.304;2023-09-07T09:31:48;9.27;;;8.23;;
5499;SDS011;2772;42.700;23.304;2023-09-07T09:34:15;9.37;;;7.57;;
5499;SDS011;2772;42.700;23.304;2023-09-07T09:36:42;11.60;;;10.40;;
5499;SDS011;2772;42.700;23.304;2023-09-07T09:39:20;11.00;;;8.93;;
5499;SDS011;2772;42.700;23.304;2023-09-07T09:41:48;10.83;;;8.07;;
5499;SDS011;2772;42.700;23.304;2023-09-07T09:44:15;11.43;;;8.83;;
5499;SDS011;2772;42.700;23.304;2023-09-07T09:46:43;9.40;;;8.47;;
5499;SDS011;2772;42.700;23.304;2023-09-07T09:49:11;10.57;;;7.40;;
5499;SDS011;2772;42.700;23.304;2023-09-07T09:51:40;16.43;;;7.60;;
5499;SDS011;2772;42.700;23.304;2023-09-07T09:54:08;10.70;;;7.40;;
5499;SDS011;2772;42.700;23.304;2023-09-07T09:56:38;7.70;;;6.87;;
5499;SDS011;2772;42.700;23.304;2023-09-07T09:59:05;12.20;;;8.10;;
5499;SDS011;2772;42.700;23.304;2023-09-07T10:01:36;15.67;;;9.40;;
5499;SDS011;2772;42.700;23.304;2023-09-07T10:04:08;7.73;;;7.03;;
5499;SDS011;2772;42.700;23.304;2023-09-07T10:06:36;8.50;;;7.60;;
5499;SDS011;2772;42.700;23.304;2023-09-07T10:09:04;8.63;;;7.70;;
5499;SDS011;2772;42.700;23.304;2023-09-07T10:11:39;8.20;;;7.50;;
5499;SDS011;2772;42.700;23.304;2023-09-07T10:14:06;17.83;;;12.60;;
5499;SDS011;2772;42.700;23.304;2023-09-07T10:16:43;11.43;;;7.50;;
5499;SDS011;2772;42.700;23.304;2023-09-07T10:19:13;9.80;;;8.40;;
5499;SDS011;2772;42.700;23.304;2023-09-07T10:21:41;8.87;;;7.70;;
5499;SDS011;2772;42.700;23.304;2023-09-07T10:24:08;13.43;;;7.50;;
5499;SDS011;2772;42.700;23.304;2023-09-07T10:26:36;12.30;;;7.63;;
5499;SDS011;2772;42.700;23.304;2023-09-07T10:29:03;13.53;;;9.10;;
5499;SDS011;2772;42.700;23.304;2023-09-07T10:31:30;9.33;;;7.23;;
5499;SDS011;2772;42.700;23.304;2023-09-07T10:34:07;10.93;;;8.30;;
5499;SDS011;2772;42.700;23.304;2023-09-07T10:36:35;13.20;;;8.43;;
5499;SDS011;2772;42.700;23.304;2023-09-07T10:39:03;13.37;;;8.37;;
5499;SDS011;2772;42.700;23.304;2023-09-07T10:41:40;11.50;;;7.40;;
5499;SDS011;2772;42.700;23.304;2023-09-07T10:44:08;15.20;;;8.00;;
5499;SDS011;2772;42.700;23.304;2023-09-07T10:46:37;11.37;;;7.40;;
5499;SDS011;2772;42.700;23.304;2023-09-07T10:49:06;12.30;;;8.07;;
5499;SDS011;2772;42.700;23.304;2023-09-07T10:51:39;9.63;;;7.30;;
5499;SDS011;2772;42.700;23.304;2023-09-07T10:54:13;11.53;;;8.20;;
5499;SDS011;2772;42.700;23.304;2023-09-07T10:56:42;12.73;;;7.30;;
5499;SDS011;2772;42.700;23.304;2023-09-07T10:59:10;12.07;;;7.60;;
5499;SDS011;2772;42.700;23.304;2023-09-07T11:01:36;10.57;;;8.70;;
5499;SDS011;2772;42.700;23.304;2023-09-07T11:04:03;13.37;;;8.13;;
5499;SDS011;2772;42.700;23.304;2023-09-07T11:06:33;15.53;;;7.90;;
5499;SDS011;2772;42.700;23.304;2023-09-07T11:09:02;7.33;;;5.60;;
5499;SDS011;2772;42.700;23.304;2023-09-07T11:11:33;6.73;;;6.03;;
5499;SDS011;2772;42.700;23.304;2023-09-07T11:14:02;10.40;;;5.83;;
5499;SDS011;2772;42.700;23.304;2023-09-07T11:16:30;6.23;;;5.73;;
5499;SDS011;2772;42.700;23.304;2023-09-07T11:18:57;8.87;;;6.20;;
5499;SDS011;2772;42.700;23.304;2023-09-07T11:21:25;7.17;;;6.33;;
5499;SDS011;2772;42.700;23.304;2023-09-07T11:23:52;7.87;;;6.27;;
5499;SDS011;2772;42.700;23.304;2023-09-07T11:26:19;10.70;;;7.53;;
5499;SDS011;2772;42.700;23.304;2023-09-07T11:28:48;10.40;;;6.63;;
5499;SDS011;2772;42.700;23.304;2023-09-07T11:31:19;11.50;;;6.80;;
5499;SDS011;2772;42.700;23.304;2023-09-07T11:33:46;6.90;;;6.20;;
5499;SDS011;2772;42.700;23.304;2023-09-07T11:36:14;7.53;;;6.83;;
5499;SDS011;2772;42.700;23.304;2023-09-07T11:38:42;9.40;;;6.17;;
5499;SDS011;2772;42.700;23.304;2023-09-07T11:41:10;15.63;;;6.17;;
5499;SDS011;2772;42.700;23.304;2023-09-07T11:43:37;10.37;;;6.10;;
5499;SDS011;2772;42.700;23.304;2023-09-07T11:46:05;9.70;;;6.47;;
5499;SDS011;2772;42.700;23.304;2023-09-07T11:48:33;23.43;;;7.10;;
5499;SDS011;2772;42.700;23.304;2023-09-07T11:51:00;6.87;;;6.27;;
5499;SDS011;2772;42.700;23.304;2023-09-07T11:53:27;11.47;;;6.20;;
5499;SDS011;2772;42.700;23.304;2023-09-07T11:55:55;9.33;;;5.97;;
5499;SDS011;2772;42.700;23.304;2023-09-07T11:58:23;8.50;;;6.80;;
5499;SDS011;2772;42.700;23.304;2023-09-07T12:00:51;14.33;;;6.60;;
5499;SDS011;2772;42.700;23.304;2023-09-07T12:03:18;8.70;;;6.10;;
5499;SDS011;2772;42.700;23.304;2023-09-07T12:05:46;7.43;;;6.57;;
5499;SDS011;2772;42.700;23.304;2023-09-07T12:08:13;10.47;;;6.13;;
5499;SDS011;2772;42.700;23.304;2023-09-07T12:10:40;11.63;;;6.07;;
5499;SDS011;2772;42.700;23.304;2023-09-07T12:13:07;12.43;;;6.17;;
5499;SDS011;2772;42.700;23.304;2023-09-07T12:15:34;8.00;;;6.17;;
5499;SDS011;2772;42.700;23.304;2023-09-07T12:18:00;7.67;;;5.97;;
5499;SDS011;2772;42.700;23.304;2023-09-07T12:20:27;6.53;;;5.50;;
5499;SDS011;2772;42.700;23.304;2023-09-07T12:22:55;8.70;;;6.40;;
5499;SDS011;2772;42.700;23.304;2023-09-07T12:25:22;7.63;;;6.60;;
5499;SDS011;2772;42.700;23.304;2023-09-07T12:27:50;6.90;;;6.20;;
5499;SDS011;2772;42.700;23.304;2023-09-07T12:30:17;8.67;;;5.90;;
5499;SDS011;2772;42.700;23.304;2023-09-07T12:32:45;7.03;;;6.20;;
5499;SDS011;2772;42.700;23.304;2023-09-07T12:35:12;10.70;;;6.37;;
5499;SDS011;2772;42.700;23.304;2023-09-07T12:37:40;11.67;;;6.03;;
5499;SDS011;2772;42.700;23.304;2023-09-07T12:40:08;10.37;;;6.60;;
5499;SDS011;2772;42.700;23.304;2023-09-07T12:42:41;8.47;;;5.80;;
5499;SDS011;2772;42.700;23.304;2023-09-07T12:45:09;9.47;;;6.70;;
5499;SDS011;2772;42.700;23.304;2023-09-07T12:47:36;7.10;;;6.50;;
5499;SDS011;2772;42.700;23.304;2023-09-07T12:50:03;7.70;;;6.27;;
5499;SDS011;2772;42.700;23.304;2023-09-07T12:52:32;7.77;;;6.47;;
5499;SDS011;2772;42.700;23.304;2023-09-07T12:54:59;8.40;;;6.23;;
5499;SDS011;2772;42.700;23.304;2023-09-07T12:57:27;11.07;;;6.00;;
5499;SDS011;2772;42.700;23.304;2023-09-07T12:59:54;8.93;;;8.03;;
5499;SDS011;2772;42.700;23.304;2023-09-07T13:02:21;9.90;;;6.40;;
5499;SDS011;2772;42.700;23.304;2023-09-07T13:04:47;6.93;;;6.23;;
5499;SDS011;2772;42.700;23.304;2023-09-07T13:07:14;6.70;;;6.00;;
5499;SDS011;2772;42.700;23.304;2023-09-07T13:09:42;6.00;;;5.50;;
5499;SDS011;2772;42.700;23.304;2023-09-07T13:12:10;10.67;;;5.70;;
5499;SDS011;2772;42.700;23.304;2023-09-07T13:14:38;7.93;;;6.10;;
5499;SDS011;2772;42.700;23.304;2023-09-07T13:17:05;8.13;;;5.87;;
5499;SDS011;2772;42.700;23.304;2023-09-07T13:19:31;10.80;;;6.63;;
5499;SDS011;2772;42.700;23.304;2023-09-07T13:21:58;9.07;;;6.50;;
5499;SDS011;2772;42.700;23.304;2023-09-07T13:24:25;14.13;;;5.97;;
5499;SDS011;2772;42.700;23.304;2023-09-07T13:26:51;17.80;;;6.07;;
5499;SDS011;2772;42.700;23.304;2023-09-07T13:29:18;16.60;;;6.30;;
5499;SDS011;2772;42.700;23.304;2023-09-07T13:31:46;6.07;;;5.53;;
5499;SDS011;2772;42.700;23.304;2023-09-07T13:34:13;7.90;;;6.57;;
5499;SDS011;2772;42.700;23.304;2023-09-07T13:36:40;7.13;;;6.30;;
5499;SDS011;2772;42.700;23.304;2023-09-07T13:39:06;9.77;;;6.37;;
5499;SDS011;2772;42.700;23.304;2023-09-07T13:41:33;8.30;;;6.70;;
5499;SDS011;2772;42.700;23.304;2023-09-07T13:44:00;9.87;;;6.10;;
5499;SDS011;2772;42.700;23.304;2023-09-07T13:46:27;7.63;;;6.93;;
5499;SDS011;2772;42.700;23.304;2023-09-07T13:48:55;9.43;;;6.50;;
5499;SDS011;2772;42.700;23.304;2023-09-07T13:51:23;9.27;;;6.37;;
5499;SDS011;2772;42.700;23.304;2023-09-07T13:53:49;11.33;;;7.07;;
5499;SDS011;2772;42.700;23.304;2023-09-07T13:56:17;8.60;;;5.97;;
5499;SDS011;2772;42.700;23.304;2023-09-07T13:58:44;8.30;;;6.30;;
5499;SDS011;2772;42.700;23.304;2023-09-07T14:01:11;7.70;;;6.90;;
5499;SDS011;2772;42.700;23.304;2023-09-07T14:03:37;6.57;;;5.97;;
5499;SDS011;2772;42.700;23.304;2023-09-07T14:06:05;7.10;;;6.20;;
5499;SDS011;2772;42.700;23.304;2023-09-07T14:08:32;8.67;;;7.13;;
5499;SDS011;2772;42.700;23.304;2023-09-07T14:10:59;8.83;;;7.33;;
5499;SDS011;2772;42.700;23.304;2023-09-07T14:13:26;8.80;;;7.43;;
5499;SDS011;2772;42.700;23.304;2023-09-07T14:15:53;6.93;;;6.30;;
5499;SDS011;2772;42.700;23.304;2023-09-07T14:18:20;11.03;;;6.63;;
5499;SDS011;2772;42.700;23.304;2023-09-07T14:20:47;13.20;;;7.77;;
5499;SDS011;2772;42.700;23.304;2023-09-07T14:23:15;13.20;;;7.03;;
5499;SDS011;2772;42.700;23.304;2023-09-07T14:25:42;8.23;;;6.67;;
5499;SDS011;2772;42.700;23.304;2023-09-07T14:28:10;10.40;;;6.87;;
5499;SDS011;2772;42.700;23.304;2023-09-07T14:30:37;11.40;;;6.60;;
5499;SDS011;2772;42.700;23.304;2023-09-07T14:33:04;9.63;;;7.37;;
5499;SDS011;2772;42.700;23.304;2023-09-07T14:35:31;8.67;;;6.30;;
5499;SDS011;2772;42.700;23.304;2023-09-07T14:37:58;11.23;;;6.40;;
5499;SDS011;2772;42.700;23.304;2023-09-07T14:40:26;9.80;;;6.13;;
5499;SDS011;2772;42.700;23.304;2023-09-07T14:43:03;11.27;;;6.93;;
5499;SDS011;2772;42.700;23.304;2023-09-07T14:45:49;7.33;;;6.33;;